sensor_id;sensor_type;location;lat;lon;timestamp;P1;durP1;ratioP1;P2;durP2;ratioP2
25917;SDS011;13899;51.174;4.456;2023-03-30T00:01:28;11.23;;;1.65;;
25917;SDS011;13899;51.174;4.456;2023-03-30T00:04:00;2.80;;;1.70;;
25917;SDS011;13899;51.174;4.456;2023-03-30T00:06:26;3.67;;;1.90;;
25917;SDS011;13899;51.174;4.456;2023-03-30T00:08:52;5.47;;;1.85;;
25917;SDS011;13899;51.174;4.456;2023-03-30T00:11:22;3.80;;;2.17;;
25917;SDS011;13899;51.174;4.456;2023-03-30T00:13:49;3.45;;;1.42;;
25917;SDS011;13899;51.174;4.456;2023-03-30T00:16:16;5.10;;;1.63;;
25917;SDS011;13899;51.174;4.456;2023-03-30T00:19:05;3.25;;;1.77;;
25917;SDS011;13899;51.174;4.456;2023-03-30T00:21:31;5.15;;;2.22;;
25917;SDS011;13899;51.174;4.456;2023-03-30T00:23:57;2.93;;;1.60;;
25917;SDS011;13899;51.174;4.456;2023-03-30T00:26:23;4.47;;;1.83;;
25917;SDS011;13899;51.174;4.456;2023-03-30T00:28:51;4.80;;;1.90;;
25917;SDS011;13899;51.174;4.456;2023-03-30T00:31:18;2.70;;;1.85;;
25917;SDS011;13899;51.174;4.456;2023-03-30T00:33:44;5.75;;;1.92;;
25917;SDS011;13899;51.174;4.456;2023-03-30T00:36:10;5.30;;;1.90;;
25917;SDS011;13899;51.174;4.456;2023-03-30T00:38:36;2.75;;;1.60;;
25917;SDS011;13899;51.174;4.456;2023-03-30T00:41:02;5.23;;;1.60;;
25917;SDS011;13899;51.174;4.456;2023-03-30T00:43:28;3.87;;;1.50;;
25917;SDS011;13899;51.174;4.456;2023-03-30T00:45:54;3.13;;;1.90;;
25917;SDS011;13899;51.174;4.456;2023-03-30T00:48:27;4.05;;;1.77;;
25917;SDS011;13899;51.174;4.456;2023-03-30T00:50:59;3.70;;;1.70;;
25917;SDS011;13899;51.174;4.456;2023-03-30T00:54:00;4.03;;;1.65;;
25917;SDS011;13899;51.174;4.456;2023-03-30T00:56:31;4.88;;;1.92;;
25917;SDS011;13899;51.174;4.456;2023-03-30T00:59:02;4.95;;;1.90;;
25917;SDS011;13899;51.174;4.456;2023-03-30T01:01:46;4.40;;;1.60;;
25917;SDS011;13899;51.174;4.456;2023-03-30T01:04:21;4.85;;;2.15;;
25917;SDS011;13899;51.174;4.456;2023-03-30T01:06:47;6.35;;;1.80;;
25917;SDS011;13899;51.174;4.456;2023-03-30T01:09:16;3.72;;;1.63;;
25917;SDS011;13899;51.174;4.456;2023-03-30T01:14:11;5.00;;;2.10;;
25917;SDS011;13899;51.174;4.456;2023-03-30T01:17:07;3.78;;;1.83;;
25917;SDS011;13899;51.174;4.456;2023-03-30T01:32:16;5.15;;;2.10;;
25917;SDS011;13899;51.174;4.456;2023-03-30T01:35:25;4.05;;;1.73;;
25917;SDS011;13899;51.174;4.456;2023-03-30T01:38:30;3.58;;;1.70;;
25917;SDS011;13899;51.174;4.456;2023-03-30T01:41:32;3.47;;;1.60;;
25917;SDS011;13899;51.174;4.456;2023-03-30T01:44:34;4.82;;;1.73;;
25917;SDS011;13899;51.174;4.456;2023-03-30T01:47:22;2.22;;;1.30;;
25917;SDS011;13899;51.174;4.456;2023-03-30T01:49:53;3.08;;;1.75;;
25917;SDS011;13899;51.174;4.456;2023-03-30T01:55:32;4.30;;;1.70;;
25917;SDS011;13899;51.174;4.456;2023-03-30T01:58:06;5.50;;;1.73;;
25917;SDS011;13899;51.174;4.456;2023-03-30T02:00:37;5.80;;;1.67;;
25917;SDS011;13899;51.174;4.456;2023-03-30T02:03:19;3.47;;;1.50;;
25917;SDS011;13899;51.174;4.456;2023-03-30T02:05:53;6.95;;;1.58;;
25917;SDS011;13899;51.174;4.456;2023-03-30T02:08:23;2.55;;;1.65;;
25917;SDS011;13899;51.174;4.456;2023-03-30T02:10:52;8.02;;;1.30;;
25917;SDS011;13899;51.174;4.456;2023-03-30T02:13:23;2.88;;;1.73;;
25917;SDS011;13899;51.174;4.456;2023-03-30T02:16:06;6.47;;;1.88;;
25917;SDS011;13899;51.174;4.456;2023-03-30T02:18:41;3.67;;;1.60;;
25917;SDS011;13899;51.174;4.456;2023-03-30T02:21:08;3.80;;;1.65;;
25917;SDS011;13899;51.174;4.456;2023-03-30T02:23:36;5.37;;;1.80;;
25917;SDS011;13899;51.174;4.456;2023-03-30T02:26:06;5.75;;;1.45;;
25917;SDS011;13899;51.174;4.456;2023-03-30T02:28:37;4.10;;;1.60;;
25917;SDS011;13899;51.174;4.456;2023-03-30T02:31:13;3.05;;;1.35;;
25917;SDS011;13899;51.174;4.456;2023-03-30T02:36:39;3.65;;;1.20;;
25917;SDS011;13899;51.174;4.456;2023-03-30T02:39:23;4.18;;;1.30;;
25917;SDS011;13899;51.174;4.456;2023-03-30T02:47:49;3.30;;;1.10;;
25917;SDS011;13899;51.174;4.456;2023-03-30T02:53:45;2.75;;;1.30;;
25917;SDS011;13899;51.174;4.456;2023-03-30T02:56:47;4.03;;;1.40;;
25917;SDS011;13899;51.174;4.456;2023-03-30T03:02:11;15.07;;;14.20;;
25917;SDS011;13899;51.174;4.456;2023-03-30T03:04:44;5.85;;;5.32;;
25917;SDS011;13899;51.174;4.456;2023-03-30T03:07:11;6.65;;;5.75;;
25917;SDS011;13899;51.174;4.456;2023-03-30T03:09:38;6.47;;;5.72;;
25917;SDS011;13899;51.174;4.456;2023-03-30T03:12:04;8.32;;;7.50;;
25917;SDS011;13899;51.174;4.456;2023-03-30T03:14:30;6.22;;;1.23;;
25917;SDS011;13899;51.174;4.456;2023-03-30T03:17:00;4.13;;;1.40;;
25917;SDS011;13899;51.174;4.456;2023-03-30T03:19:25;2.50;;;1.17;;
25917;SDS011;13899;51.174;4.456;2023-03-30T03:21:52;5.25;;;1.63;;
25917;SDS011;13899;51.174;4.456;2023-03-30T03:24:18;6.20;;;1.42;;
25917;SDS011;13899;51.174;4.456;2023-03-30T03:26:47;4.72;;;1.60;;
25917;SDS011;13899;51.174;4.456;2023-03-30T03:29:13;4.57;;;1.23;;
25917;SDS011;13899;51.174;4.456;2023-03-30T03:31:47;2.35;;;1.13;;
25917;SDS011;13899;51.174;4.456;2023-03-30T03:34:14;1.65;;;1.00;;
25917;SDS011;13899;51.174;4.456;2023-03-30T03:36:39;4.15;;;1.33;;
25917;SDS011;13899;51.174;4.456;2023-03-30T03:39:08;4.80;;;1.40;;
25917;SDS011;13899;51.174;4.456;2023-03-30T03:41:33;5.90;;;1.20;;
25917;SDS011;13899;51.174;4.456;2023-03-30T03:44:02;4.37;;;1.23;;
25917;SDS011;13899;51.174;4.456;2023-03-30T03:46:28;2.95;;;1.40;;
25917;SDS011;13899;51.174;4.456;2023-03-30T03:48:54;2.55;;;1.13;;
25917;SDS011;13899;51.174;4.456;2023-03-30T03:51:20;8.27;;;1.50;;
25917;SDS011;13899;51.174;4.456;2023-03-30T03:53:45;2.30;;;1.30;;
25917;SDS011;13899;51.174;4.456;2023-03-30T03:56:13;2.83;;;1.10;;
25917;SDS011;13899;51.174;4.456;2023-03-30T03:58:41;5.20;;;1.50;;
25917;SDS011;13899;51.174;4.456;2023-03-30T04:01:09;4.78;;;1.50;;
25917;SDS011;13899;51.174;4.456;2023-03-30T04:03:38;5.13;;;1.90;;
25917;SDS011;13899;51.174;4.456;2023-03-30T04:06:06;4.35;;;1.20;;
25917;SDS011;13899;51.174;4.456;2023-03-30T04:08:31;2.28;;;1.23;;
25917;SDS011;13899;51.174;4.456;2023-03-30T04:13:51;3.67;;;1.10;;
25917;SDS011;13899;51.174;4.456;2023-03-30T04:16:38;4.22;;;1.20;;
25917;SDS011;13899;51.174;4.456;2023-03-30T04:19:03;4.57;;;1.95;;
25917;SDS011;13899;51.174;4.456;2023-03-30T04:21:29;6.23;;;1.20;;
25917;SDS011;13899;51.174;4.456;2023-03-30T04:23:56;4.70;;;1.20;;
25917;SDS011;13899;51.174;4.456;2023-03-30T04:26:43;8.20;;;1.70;;
25917;SDS011;13899;51.174;4.456;2023-03-30T04:29:21;2.35;;;1.25;;
25917;SDS011;13899;51.174;4.456;2023-03-30T04:31:47;5.57;;;1.30;;
25917;SDS011;13899;51.174;4.456;2023-03-30T04:34:16;3.25;;;1.00;;
25917;SDS011;13899;51.174;4.456;2023-03-30T04:36:48;6.00;;;1.55;;
25917;SDS011;13899;51.174;4.456;2023-03-30T04:39:14;3.38;;;1.10;;
25917;SDS011;13899;51.174;4.456;2023-03-30T04:41:42;3.75;;;1.30;;
25917;SDS011;13899;51.174;4.456;2023-03-30T04:44:10;8.68;;;1.83;;
25917;SDS011;13899;51.174;4.456;2023-03-30T04:46:44;4.47;;;1.27;;
25917;SDS011;13899;51.174;4.456;2023-03-30T04:49:10;4.65;;;1.50;;
25917;SDS011;13899;51.174;4.456;2023-03-30T04:51:36;10.70;;;10.10;;
25917;SDS011;13899;51.174;4.456;2023-03-30T04:54:03;9.32;;;8.63;;
25917;SDS011;13899;51.174;4.456;2023-03-30T04:56:31;5.43;;;1.27;;
25917;SDS011;13899;51.174;4.456;2023-03-30T04:58:56;2.83;;;1.05;;
25917;SDS011;13899;51.174;4.456;2023-03-30T05:01:25;5.67;;;0.97;;
25917;SDS011;13899;51.174;4.456;2023-03-30T05:03:53;4.18;;;1.50;;
25917;SDS011;13899;51.174;4.456;2023-03-30T05:06:19;3.75;;;1.15;;
25917;SDS011;13899;51.174;4.456;2023-03-30T05:08:45;5.82;;;1.35;;
25917;SDS011;13899;51.174;4.456;2023-03-30T05:11:11;5.55;;;1.38;;
25917;SDS011;13899;51.174;4.456;2023-03-30T05:13:37;5.63;;;1.57;;
25917;SDS011;13899;51.174;4.456;2023-03-30T05:16:04;5.55;;;3.28;;
25917;SDS011;13899;51.174;4.456;2023-03-30T05:18:30;12.57;;;11.85;;
25917;SDS011;13899;51.174;4.456;2023-03-30T05:20:57;16.40;;;15.30;;
25917;SDS011;13899;51.174;4.456;2023-03-30T05:23:26;12.88;;;11.30;;
25917;SDS011;13899;51.174;4.456;2023-03-30T05:25:52;12.68;;;11.80;;
25917;SDS011;13899;51.174;4.456;2023-03-30T05:30:45;14.05;;;13.15;;
25917;SDS011;13899;51.174;4.456;2023-03-30T05:33:11;16.60;;;15.37;;
25917;SDS011;13899;51.174;4.456;2023-03-30T05:35:37;20.87;;;19.43;;
25917;SDS011;13899;51.174;4.456;2023-03-30T05:38:03;12.50;;;9.93;;
25917;SDS011;13899;51.174;4.456;2023-03-30T05:40:32;6.97;;;6.25;;
25917;SDS011;13899;51.174;4.456;2023-03-30T05:42:58;12.47;;;6.30;;
25917;SDS011;13899;51.174;4.456;2023-03-30T05:45:24;8.15;;;6.15;;
25917;SDS011;13899;51.174;4.456;2023-03-30T05:47:51;8.23;;;7.35;;
25917;SDS011;13899;51.174;4.456;2023-03-30T05:50:18;10.45;;;6.70;;
25917;SDS011;13899;51.174;4.456;2023-03-30T05:52:44;7.90;;;5.80;;
25917;SDS011;13899;51.174;4.456;2023-03-30T05:55:10;6.88;;;4.47;;
25917;SDS011;13899;51.174;4.456;2023-03-30T05:57:39;5.97;;;5.38;;
25917;SDS011;13899;51.174;4.456;2023-03-30T06:00:05;7.88;;;2.25;;
25917;SDS011;13899;51.174;4.456;2023-03-30T06:02:31;8.05;;;2.67;;
25917;SDS011;13899;51.174;4.456;2023-03-30T06:04:57;8.38;;;2.13;;
25917;SDS011;13899;51.174;4.456;2023-03-30T06:07:25;6.53;;;2.40;;
25917;SDS011;13899;51.174;4.456;2023-03-30T06:09:51;8.15;;;2.60;;
25917;SDS011;13899;51.174;4.456;2023-03-30T06:12:18;7.77;;;3.37;;
25917;SDS011;13899;51.174;4.456;2023-03-30T06:14:43;11.20;;;3.30;;
25917;SDS011;13899;51.174;4.456;2023-03-30T06:17:09;7.10;;;3.08;;
25917;SDS011;13899;51.174;4.456;2023-03-30T06:19:39;7.18;;;2.85;;
25917;SDS011;13899;51.174;4.456;2023-03-30T06:22:06;6.78;;;3.97;;
25917;SDS011;13899;51.174;4.456;2023-03-30T06:24:32;7.23;;;4.43;;
25917;SDS011;13899;51.174;4.456;2023-03-30T06:26:57;8.13;;;4.30;;
25917;SDS011;13899;51.174;4.456;2023-03-30T06:29:23;8.02;;;5.78;;
25917;SDS011;13899;51.174;4.456;2023-03-30T06:31:49;9.82;;;6.97;;
25917;SDS011;13899;51.174;4.456;2023-03-30T06:34:15;6.70;;;5.45;;
25917;SDS011;13899;51.174;4.456;2023-03-30T06:36:41;10.17;;;2.53;;
25917;SDS011;13899;51.174;4.456;2023-03-30T06:41:33;8.20;;;5.53;;
25917;SDS011;13899;51.174;4.456;2023-03-30T06:43:59;7.55;;;6.95;;
25917;SDS011;13899;51.174;4.456;2023-03-30T06:46:25;9.13;;;7.07;;
25917;SDS011;13899;51.174;4.456;2023-03-30T06:48:51;12.07;;;8.17;;
25917;SDS011;13899;51.174;4.456;2023-03-30T06:51:16;11.57;;;4.25;;
25917;SDS011;13899;51.174;4.456;2023-03-30T06:53:42;10.25;;;2.53;;
25917;SDS011;13899;51.174;4.456;2023-03-30T06:56:07;14.13;;;7.57;;
25917;SDS011;13899;51.174;4.456;2023-03-30T06:58:33;10.80;;;2.42;;
25917;SDS011;13899;51.174;4.456;2023-03-30T07:01:07;6.22;;;2.17;;
25917;SDS011;13899;51.174;4.456;2023-03-30T07:03:36;7.82;;;3.28;;
25917;SDS011;13899;51.174;4.456;2023-03-30T07:06:02;14.27;;;5.55;;
25917;SDS011;13899;51.174;4.456;2023-03-30T07:08:30;15.52;;;6.25;;
25917;SDS011;13899;51.174;4.456;2023-03-30T07:10:57;15.07;;;7.30;;
25917;SDS011;13899;51.174;4.456;2023-03-30T07:13:22;11.93;;;5.38;;
25917;SDS011;13899;51.174;4.456;2023-03-30T07:15:48;7.63;;;5.50;;
25917;SDS011;13899;51.174;4.456;2023-03-30T07:18:13;16.75;;;9.57;;
25917;SDS011;13899;51.174;4.456;2023-03-30T07:20:39;13.27;;;9.05;;
25917;SDS011;13899;51.174;4.456;2023-03-30T07:23:05;10.33;;;3.97;;
25917;SDS011;13899;51.174;4.456;2023-03-30T07:25:31;9.82;;;2.28;;
25917;SDS011;13899;51.174;4.456;2023-03-30T07:27:57;11.53;;;2.80;;
25917;SDS011;13899;51.174;4.456;2023-03-30T07:30:22;24.93;;;8.37;;
25917;SDS011;13899;51.174;4.456;2023-03-30T07:32:48;17.17;;;3.33;;
25917;SDS011;13899;51.174;4.456;2023-03-30T07:35:14;19.48;;;9.45;;
25917;SDS011;13899;51.174;4.456;2023-03-30T07:40:07;13.33;;;2.60;;
25917;SDS011;13899;51.174;4.456;2023-03-30T07:42:33;16.08;;;2.47;;
25917;SDS011;13899;51.174;4.456;2023-03-30T07:44:59;20.42;;;3.20;;
25917;SDS011;13899;51.174;4.456;2023-03-30T07:47:25;11.80;;;2.05;;
25917;SDS011;13899;51.174;4.456;2023-03-30T07:49:51;9.25;;;3.45;;
25917;SDS011;13899;51.174;4.456;2023-03-30T07:52:18;14.93;;;2.63;;
25917;SDS011;13899;51.174;4.456;2023-03-30T07:54:43;14.60;;;2.47;;
25917;SDS011;13899;51.174;4.456;2023-03-30T07:57:09;11.80;;;1.93;;
25917;SDS011;13899;51.174;4.456;2023-03-30T07:59:36;14.85;;;2.35;;
25917;SDS011;13899;51.174;4.456;2023-03-30T08:02:02;16.00;;;2.40;;
25917;SDS011;13899;51.174;4.456;2023-03-30T08:04:28;18.20;;;10.77;;
25917;SDS011;13899;51.174;4.456;2023-03-30T08:06:55;23.10;;;11.02;;
25917;SDS011;13899;51.174;4.456;2023-03-30T08:09:21;20.83;;;5.60;;
25917;SDS011;13899;51.174;4.456;2023-03-30T08:11:46;15.67;;;5.33;;
25917;SDS011;13899;51.174;4.456;2023-03-30T08:14:12;16.13;;;2.47;;
25917;SDS011;13899;51.174;4.456;2023-03-30T08:16:37;22.13;;;11.50;;
25917;SDS011;13899;51.174;4.456;2023-03-30T08:19:03;12.20;;;7.47;;
25917;SDS011;13899;51.174;4.456;2023-03-30T08:21:29;14.93;;;3.17;;
25917;SDS011;13899;51.174;4.456;2023-03-30T08:23:55;11.57;;;2.50;;
25917;SDS011;13899;51.174;4.456;2023-03-30T08:26:23;9.48;;;3.17;;
25917;SDS011;13899;51.174;4.456;2023-03-30T08:28:52;11.43;;;2.83;;
25917;SDS011;13899;51.174;4.456;2023-03-30T08:31:18;17.70;;;7.15;;
25917;SDS011;13899;51.174;4.456;2023-03-30T08:33:45;15.55;;;4.45;;
25917;SDS011;13899;51.174;4.456;2023-03-30T08:36:11;15.07;;;8.32;;
25917;SDS011;13899;51.174;4.456;2023-03-30T08:38:38;17.30;;;10.77;;
25917;SDS011;13899;51.174;4.456;2023-03-30T08:46:33;18.00;;;8.85;;
25917;SDS011;13899;51.174;4.456;2023-03-30T08:48:59;19.52;;;10.13;;
25917;SDS011;13899;51.174;4.456;2023-03-30T08:51:35;16.42;;;3.30;;
25917;SDS011;13899;51.174;4.456;2023-03-30T08:54:03;14.10;;;2.92;;
25917;SDS011;13899;51.174;4.456;2023-03-30T08:56:38;21.10;;;15.32;;
25917;SDS011;13899;51.174;4.456;2023-03-30T08:59:28;16.88;;;12.20;;
25917;SDS011;13899;51.174;4.456;2023-03-30T09:02:23;18.02;;;11.38;;
25917;SDS011;13899;51.174;4.456;2023-03-30T09:10:16;23.85;;;12.20;;
25917;SDS011;13899;51.174;4.456;2023-03-30T09:12:47;22.60;;;12.57;;
25917;SDS011;13899;51.174;4.456;2023-03-30T09:15:21;15.82;;;12.32;;
25917;SDS011;13899;51.174;4.456;2023-03-30T09:18:24;17.38;;;14.52;;
25917;SDS011;13899;51.174;4.456;2023-03-30T09:20:59;26.08;;;18.75;;
25917;SDS011;13899;51.174;4.456;2023-03-30T09:23:28;18.88;;;16.92;;
25917;SDS011;13899;51.174;4.456;2023-03-30T09:25:57;24.50;;;21.90;;
25917;SDS011;13899;51.174;4.456;2023-03-30T09:28:41;23.27;;;20.75;;
25917;SDS011;13899;51.174;4.456;2023-03-30T09:31:40;27.80;;;21.92;;
25917;SDS011;13899;51.174;4.456;2023-03-30T09:37:21;25.02;;;13.70;;
25917;SDS011;13899;51.174;4.456;2023-03-30T09:39:48;19.80;;;14.77;;
25917;SDS011;13899;51.174;4.456;2023-03-30T09:43:00;16.67;;;11.00;;
25917;SDS011;13899;51.174;4.456;2023-03-30T09:48:05;16.90;;;3.92;;
25917;SDS011;13899;51.174;4.456;2023-03-30T09:50:39;17.35;;;9.50;;
25917;SDS011;13899;51.174;4.456;2023-03-30T09:55:56;12.30;;;2.40;;
25917;SDS011;13899;51.174;4.456;2023-03-30T09:58:29;12.95;;;3.30;;
25917;SDS011;13899;51.174;4.456;2023-03-30T10:01:00;11.38;;;2.28;;
25917;SDS011;13899;51.174;4.456;2023-03-30T10:03:36;11.73;;;2.33;;
25917;SDS011;13899;51.174;4.456;2023-03-30T10:06:07;9.57;;;2.33;;
25917;SDS011;13899;51.174;4.456;2023-03-30T10:08:55;14.65;;;8.40;;
25917;SDS011;13899;51.174;4.456;2023-03-30T10:11:46;18.90;;;15.18;;
25917;SDS011;13899;51.174;4.456;2023-03-30T10:14:36;12.98;;;9.30;;
25917;SDS011;13899;51.174;4.456;2023-03-30T10:17:01;14.95;;;2.55;;
25917;SDS011;13899;51.174;4.456;2023-03-30T10:19:29;12.10;;;2.50;;
25917;SDS011;13899;51.174;4.456;2023-03-30T10:21:58;10.68;;;2.65;;
25917;SDS011;13899;51.174;4.456;2023-03-30T10:24:28;15.68;;;10.20;;
25917;SDS011;13899;51.174;4.456;2023-03-30T10:27:11;11.18;;;2.50;;
25917;SDS011;13899;51.174;4.456;2023-03-30T10:32:16;13.77;;;2.97;;
25917;SDS011;13899;51.174;4.456;2023-03-30T10:34:50;14.48;;;3.20;;
25917;SDS011;13899;51.174;4.456;2023-03-30T10:37:38;13.55;;;3.35;;
25917;SDS011;13899;51.174;4.456;2023-03-30T10:42:42;11.77;;;3.65;;
25917;SDS011;13899;51.174;4.456;2023-03-30T10:45:14;11.80;;;2.40;;
25917;SDS011;13899;51.174;4.456;2023-03-30T10:47:49;9.23;;;3.88;;
25917;SDS011;13899;51.174;4.456;2023-03-30T10:53:32;9.48;;;2.40;;
25917;SDS011;13899;51.174;4.456;2023-03-30T11:04:15;10.00;;;2.30;;
25917;SDS011;13899;51.174;4.456;2023-03-30T11:07:04;10.57;;;5.95;;
25917;SDS011;13899;51.174;4.456;2023-03-30T11:09:37;12.60;;;3.53;;
25917;SDS011;13899;51.174;4.456;2023-03-30T11:12:06;8.40;;;4.88;;
25917;SDS011;13899;51.174;4.456;2023-03-30T11:14:50;10.80;;;4.95;;
25917;SDS011;13899;51.174;4.456;2023-03-30T11:18:09;10.52;;;4.50;;
25917;SDS011;13899;51.174;4.456;2023-03-30T11:20:25;11.43;;;10.48;;
25917;SDS011;13899;51.174;4.456;2023-03-30T11:23:02;10.98;;;9.75;;
25917;SDS011;13899;51.174;4.456;2023-03-30T11:33:56;11.05;;;6.50;;
25917;SDS011;13899;51.174;4.456;2023-03-30T11:39:10;14.82;;;2.35;;
25917;SDS011;13899;51.174;4.456;2023-03-30T11:41:57;10.95;;;2.28;;
25917;SDS011;13899;51.174;4.456;2023-03-30T11:44:42;11.13;;;3.35;;
25917;SDS011;13899;51.174;4.456;2023-03-30T11:49:55;8.57;;;2.35;;
25917;SDS011;13899;51.174;4.456;2023-03-30T11:52:42;11.88;;;2.40;;
25917;SDS011;13899;51.174;4.456;2023-03-30T11:57:54;11.40;;;2.63;;
25917;SDS011;13899;51.174;4.456;2023-03-30T12:09:03;10.77;;;3.40;;
25917;SDS011;13899;51.174;4.456;2023-03-30T12:11:46;13.07;;;7.07;;
25917;SDS011;13899;51.174;4.456;2023-03-30T12:17:00;7.95;;;5.43;;
25917;SDS011;13899;51.174;4.456;2023-03-30T12:19:45;7.28;;;6.03;;
25917;SDS011;13899;51.174;4.456;2023-03-30T12:25:05;16.35;;;8.30;;
25917;SDS011;13899;51.174;4.456;2023-03-30T12:33:16;14.80;;;6.90;;
25917;SDS011;13899;51.174;4.456;2023-03-30T12:38:18;10.63;;;9.45;;
25917;SDS011;13899;51.174;4.456;2023-03-30T12:40:51;10.05;;;2.00;;
25917;SDS011;13899;51.174;4.456;2023-03-30T12:43:58;9.75;;;4.85;;
25917;SDS011;13899;51.174;4.456;2023-03-30T12:46:41;8.80;;;7.47;;
25917;SDS011;13899;51.174;4.456;2023-03-30T13:03:45;14.77;;;3.05;;
25917;SDS011;13899;51.174;4.456;2023-03-30T13:06:29;20.73;;;3.35;;
25917;SDS011;13899;51.174;4.456;2023-03-30T13:23:22;25.35;;;23.27;;
25917;SDS011;13899;51.174;4.456;2023-03-30T13:26:22;7.80;;;2.08;;
25917;SDS011;13899;51.174;4.456;2023-03-30T13:29:07;11.07;;;2.00;;
25917;SDS011;13899;51.174;4.456;2023-03-30T13:32:05;9.50;;;2.17;;
25917;SDS011;13899;51.174;4.456;2023-03-30T13:40:25;6.38;;;2.10;;
25917;SDS011;13899;51.174;4.456;2023-03-30T13:51:04;15.60;;;13.90;;
25917;SDS011;13899;51.174;4.456;2023-03-30T13:53:32;16.20;;;12.10;;
25917;SDS011;13899;51.174;4.456;2023-03-30T13:56:06;13.43;;;8.98;;
25917;SDS011;13899;51.174;4.456;2023-03-30T13:58:33;8.13;;;6.30;;
25917;SDS011;13899;51.174;4.456;2023-03-30T14:01:01;9.50;;;7.03;;
25917;SDS011;13899;51.174;4.456;2023-03-30T14:03:41;13.73;;;8.00;;
25917;SDS011;13899;51.174;4.456;2023-03-30T14:06:19;7.05;;;6.07;;
25917;SDS011;13899;51.174;4.456;2023-03-30T14:08:56;13.77;;;5.90;;
25917;SDS011;13899;51.174;4.456;2023-03-30T14:11:23;12.95;;;6.50;;
25917;SDS011;13899;51.174;4.456;2023-03-30T14:14:30;9.45;;;5.95;;
25917;SDS011;13899;51.174;4.456;2023-03-30T14:17:13;10.30;;;6.65;;
25917;SDS011;13899;51.174;4.456;2023-03-30T14:19:54;10.02;;;6.55;;
25917;SDS011;13899;51.174;4.456;2023-03-30T14:22:43;8.65;;;6.45;;
25917;SDS011;13899;51.174;4.456;2023-03-30T14:30:52;9.15;;;7.25;;
25917;SDS011;13899;51.174;4.456;2023-03-30T14:33:20;9.18;;;8.27;;
25917;SDS011;13899;51.174;4.456;2023-03-30T14:35:47;11.63;;;10.77;;
25917;SDS011;13899;51.174;4.456;2023-03-30T14:38:16;6.28;;;1.67;;
25917;SDS011;13899;51.174;4.456;2023-03-30T14:40:49;11.73;;;10.77;;
25917;SDS011;13899;51.174;4.456;2023-03-30T14:43:21;10.73;;;9.82;;
25917;SDS011;13899;51.174;4.456;2023-03-30T14:45:50;13.80;;;12.43;;
25917;SDS011;13899;51.174;4.456;2023-03-30T14:48:22;9.95;;;9.18;;
25917;SDS011;13899;51.174;4.456;2023-03-30T14:50:53;13.38;;;12.05;;
25917;SDS011;13899;51.174;4.456;2023-03-30T14:53:24;10.60;;;9.63;;
25917;SDS011;13899;51.174;4.456;2023-03-30T14:55:51;9.20;;;8.50;;
25917;SDS011;13899;51.174;4.456;2023-03-30T14:58:22;10.70;;;9.90;;
25917;SDS011;13899;51.174;4.456;2023-03-30T15:00:53;10.93;;;9.82;;
25917;SDS011;13899;51.174;4.456;2023-03-30T15:03:23;10.38;;;9.48;;
25917;SDS011;13899;51.174;4.456;2023-03-30T15:06:00;9.57;;;8.55;;
25917;SDS011;13899;51.174;4.456;2023-03-30T15:08:29;12.90;;;11.63;;
25917;SDS011;13899;51.174;4.456;2023-03-30T15:10:59;11.45;;;10.45;;
25917;SDS011;13899;51.174;4.456;2023-03-30T15:13:34;12.40;;;11.20;;
25917;SDS011;13899;51.174;4.456;2023-03-30T15:16:05;11.48;;;10.57;;
25917;SDS011;13899;51.174;4.456;2023-03-30T15:18:33;10.52;;;9.63;;
25917;SDS011;13899;51.174;4.456;2023-03-30T15:21:00;9.68;;;5.38;;
25917;SDS011;13899;51.174;4.456;2023-03-30T15:23:34;8.83;;;8.10;;
25917;SDS011;13899;51.174;4.456;2023-03-30T15:26:04;11.35;;;7.57;;
25917;SDS011;13899;51.174;4.456;2023-03-30T15:28:33;9.80;;;2.63;;
25917;SDS011;13899;51.174;4.456;2023-03-30T15:31:09;9.70;;;8.93;;
25917;SDS011;13899;51.174;4.456;2023-03-30T15:33:41;10.18;;;9.48;;
25917;SDS011;13899;51.174;4.456;2023-03-30T15:36:10;10.73;;;9.77;;
25917;SDS011;13899;51.174;4.456;2023-03-30T15:38:47;11.25;;;10.43;;
25917;SDS011;13899;51.174;4.456;2023-03-30T15:41:20;5.35;;;1.20;;
25917;SDS011;13899;51.174;4.456;2023-03-30T15:44:09;10.38;;;9.50;;
25917;SDS011;13899;51.174;4.456;2023-03-30T15:46:36;9.82;;;8.93;;
25917;SDS011;13899;51.174;4.456;2023-03-30T15:49:04;4.65;;;1.00;;
25917;SDS011;13899;51.174;4.456;2023-03-30T15:51:43;7.93;;;1.33;;
25917;SDS011;13899;51.174;4.456;2023-03-30T15:54:35;6.70;;;1.20;;
25917;SDS011;13899;51.174;4.456;2023-03-30T16:00:12;7.25;;;1.45;;
25917;SDS011;13899;51.174;4.456;2023-03-30T16:02:45;7.80;;;5.20;;
25917;SDS011;13899;51.174;4.456;2023-03-30T16:05:17;6.63;;;4.40;;
25917;SDS011;13899;51.174;4.456;2023-03-30T16:07:44;4.53;;;4.03;;
25917;SDS011;13899;51.174;4.456;2023-03-30T16:10:14;6.47;;;4.23;;
25917;SDS011;13899;51.174;4.456;2023-03-30T16:12:44;9.07;;;4.70;;
25917;SDS011;13899;51.174;4.456;2023-03-30T16:15:12;5.82;;;4.85;;
25917;SDS011;13899;51.174;4.456;2023-03-30T16:17:40;9.52;;;5.90;;
25917;SDS011;13899;51.174;4.456;2023-03-30T16:20:24;9.20;;;5.80;;
25917;SDS011;13899;51.174;4.456;2023-03-30T16:22:58;8.77;;;4.82;;
25917;SDS011;13899;51.174;4.456;2023-03-30T16:25:25;6.30;;;3.90;;
25917;SDS011;13899;51.174;4.456;2023-03-30T16:27:52;8.35;;;4.70;;
25917;SDS011;13899;51.174;4.456;2023-03-30T16:30:29;9.55;;;6.43;;
25917;SDS011;13899;51.174;4.456;2023-03-30T16:33:01;6.78;;;4.63;;
25917;SDS011;13899;51.174;4.456;2023-03-30T16:35:27;7.63;;;3.33;;
25917;SDS011;13899;51.174;4.456;2023-03-30T16:37:54;7.38;;;1.60;;
25917;SDS011;13899;51.174;4.456;2023-03-30T16:40:27;6.70;;;2.13;;
25917;SDS011;13899;51.174;4.456;2023-03-30T16:42:59;7.95;;;1.58;;
25917;SDS011;13899;51.174;4.456;2023-03-30T16:45:24;6.83;;;2.50;;
25917;SDS011;13899;51.174;4.456;2023-03-30T16:47:51;9.55;;;1.85;;
25917;SDS011;13899;51.174;4.456;2023-03-30T16:50:17;5.40;;;1.77;;
25917;SDS011;13899;51.174;4.456;2023-03-30T16:52:49;14.57;;;13.48;;
25917;SDS011;13899;51.174;4.456;2023-03-30T16:55:16;12.83;;;11.73;;
25917;SDS011;13899;51.174;4.456;2023-03-30T16:57:43;7.50;;;1.92;;
25917;SDS011;13899;51.174;4.456;2023-03-30T17:00:14;6.40;;;1.80;;
25917;SDS011;13899;51.174;4.456;2023-03-30T17:02:42;12.05;;;6.43;;
25917;SDS011;13899;51.174;4.456;2023-03-30T17:05:08;9.43;;;6.37;;
25917;SDS011;13899;51.174;4.456;2023-03-30T17:07:34;10.15;;;2.20;;
25917;SDS011;13899;51.174;4.456;2023-03-30T17:10:05;8.40;;;5.22;;
25917;SDS011;13899;51.174;4.456;2023-03-30T17:12:38;8.25;;;5.53;;
25917;SDS011;13899;51.174;4.456;2023-03-30T17:15:05;6.75;;;5.47;;
25917;SDS011;13899;51.174;4.456;2023-03-30T17:17:33;7.28;;;5.50;;
25917;SDS011;13899;51.174;4.456;2023-03-30T17:20:00;9.40;;;6.40;;
25917;SDS011;13899;51.174;4.456;2023-03-30T17:22:52;8.15;;;6.63;;
25917;SDS011;13899;51.174;4.456;2023-03-30T17:25:19;12.73;;;6.87;;
25917;SDS011;13899;51.174;4.456;2023-03-30T17:27:47;11.73;;;5.60;;
25917;SDS011;13899;51.174;4.456;2023-03-30T17:30:16;9.30;;;4.93;;
25917;SDS011;13899;51.174;4.456;2023-03-30T17:32:47;8.88;;;7.85;;
25917;SDS011;13899;51.174;4.456;2023-03-30T17:35:13;11.43;;;7.70;;
25917;SDS011;13899;51.174;4.456;2023-03-30T17:37:39;11.02;;;6.70;;
25917;SDS011;13899;51.174;4.456;2023-03-30T17:40:25;11.07;;;6.57;;
25917;SDS011;13899;51.174;4.456;2023-03-30T17:45:19;11.60;;;6.70;;
25917;SDS011;13899;51.174;4.456;2023-03-30T17:47:47;8.48;;;6.30;;
25917;SDS011;13899;51.174;4.456;2023-03-30T17:52:47;11.15;;;6.15;;
25917;SDS011;13899;51.174;4.456;2023-03-30T17:55:14;11.38;;;6.53;;
25917;SDS011;13899;51.174;4.456;2023-03-30T17:57:41;13.88;;;5.85;;
25917;SDS011;13899;51.174;4.456;2023-03-30T18:00:13;16.63;;;8.03;;
25917;SDS011;13899;51.174;4.456;2023-03-30T18:02:51;9.23;;;4.10;;